weather.gov     
National Weather Service

Terminal Aerodrome Forecast
NWS Homepage
This page is being discontinued on March 12, 2014.
The same data is available at this site. Please update your bookmarks.
Thank you, and we apologize for the inconvenience.
Please send an email to SR-SRH.Webmaster@noaa.gov with any concerns.


Current Version
Previous Version:    01  02  03  04  05  06  07  08  09  10  11  12  13  14  15  16  17  18  19  20  21  22  23  24  25  26  27  28  29  30  
   31  32  33  34  35  36  37  38  39  40  41  42  43  44  45  46  47  48  49  50  51  52  53  54  55  56  57  58  59  60  
[Printable]
637
FTUS43 KLOT 011100
TAFMDW
TAF
KMDW 011120Z 0112/0212 20010KT P6SM VCSH SCT009 BKN014
     FM011300 12008KT P6SM SCT010 BKN018
     FM011500 17010KT P6SM VCSH SCT020 BKN050
     FM011600 21013G20KT P6SM VCTS SCT020 BKN050CB
      TEMPO 0116/0119 VRB10G20KT 3SM SHRA SCT025 OVC035
     FM011900 23015G22KT P6SM SCT030 BKN050
     FM012300 24012KT P6SM SCT030 BKN050 PROB30 0123/0205 3SM TSRA
      SCT020 OVC040CB
     FM021000 30008KT P6SM SCT040=


U.S. Dept. of Commerce
NOAA National Weather Service
1325 East West Highway
Silver Spring, MD 20910
E-mail: w-nws.webmaster@noaa.gov
Page last modified: May 16, 2007
NATIONAL WEATHER SERVICE: for Safety, for Work, for Fun - FOR LIFE